Time;durP1;ratioP1;P1;durP2;ratioP2;P2;SDS_P1;SDS_P2;PMS_P1;PMS_P2;Temp;Humidity;BMP_temperature;BMP_pressure;BME280_temperature;BME280_humidity;BME280_pressure;Samples;Min_cycle;Max_cycle;Signal;HPM_P1;HPM_P2
2021/01/03 00:02:10;;;;;;;234.93;89.30;;;2.80;99.90;;;;;;4921001;29;20541;-92
2021/01/03 00:04:37;;;;;;;217.67;87.63;;;0.50;99.90;;;;;;4943903;29;20215;-90
2021/01/03 00:07:03;;;;;;;217.90;86.70;;;2.50;99.90;;;;;;4947209;29;20257;-92
2021/01/03 00:09:29;;;;;;;213.73;79.27;;;2.10;99.90;;;;;;4963669;29;20181;-92
2021/01/03 00:11:55;;;;;;;270.43;95.13;;;2.30;99.90;;;;;;4962911;29;20195;-92
2021/01/03 00:14:21;;;;;;;239.50;93.37;;;2.90;99.90;;;;;;4946237;29;20247;-91
2021/01/03 00:16:57;;;;;;;238.07;84.97;;;1.60;99.90;;;;;;4947695;29;20270;-93
2021/01/03 00:19:23;;;;;;;260.47;86.00;;;0.60;99.90;;;;;;4948151;29;20211;-92
2021/01/03 00:21:49;;;;;;;273.70;93.77;;;2.10;99.90;;;;;;4946277;29;20176;-91
2021/01/03 00:24:15;;;;;;;266.23;92.93;;;0.40;99.90;;;;;;4946214;29;20196;-92
2021/01/03 00:26:41;;;;;;;246.97;90.27;;;2.30;99.90;;;;;;4962842;29;20217;-92
2021/01/03 00:29:07;;;;;;;253.20;91.33;;;1.90;99.90;;;;;;4938315;29;20230;-93
2021/01/03 00:31:36;;;;;;;241.70;89.77;;;0.30;99.90;;;;;;4941757;29;20196;-93
2021/01/03 00:34:01;;;;;;;234.50;83.83;;;1.40;99.90;;;;;;4925432;29;20213;-93
2021/01/03 00:36:27;;;;;;;223.00;82.10;;;0.30;99.90;;;;;;4923096;29;20286;-93
2021/01/03 00:38:52;;;;;;;196.40;73.27;;;0.70;99.90;;;;;;4939972;29;20180;-95
2021/01/03 00:41:18;;;;;;;202.63;75.30;;;1.30;99.90;;;;;;4923876;29;20197;-94
2021/01/03 00:43:44;;;;;;;199.43;75.60;;;0.30;99.90;;;;;;4925201;29;20242;-96
2021/01/03 00:46:09;;;;;;;229.93;82.57;;;2.20;99.90;;;;;;4942364;29;20614;-94
2021/01/03 00:48:35;;;;;;;190.87;72.60;;;0.30;99.90;;;;;;4940149;29;20587;-95
2021/01/03 00:51:01;;;;;;;201.60;73.97;;;1.70;99.90;;;;;;4922188;29;20191;-94
2021/01/03 00:53:26;;;;;;;205.50;74.47;;;0.20;99.90;;;;;;4937692;29;20180;-93
2021/01/03 00:55:52;;;;;;;227.80;80.63;;;0.10;99.90;;;;;;4937705;29;20669;-92
2021/01/03 00:58:17;;;;;;;254.87;85.23;;;0.40;99.90;;;;;;4938595;29;20738;-93
2021/01/03 01:00:43;;;;;;;214.40;77.73;;;0.10;99.90;;;;;;4938699;29;21039;-95
2021/01/03 01:03:09;;;;;;;232.23;83.37;;;1.50;99.90;;;;;;4921985;29;20641;-93
2021/01/03 01:05:34;;;;;;;243.17;82.87;;;0.10;99.90;;;;;;4921664;29;20246;-93
2021/01/03 01:08:00;;;;;;;245.00;81.10;;;0.10;99.90;;;;;;4938101;29;20194;-93
2021/01/03 01:10:28;;;;;;;208.23;75.43;;;0.10;99.90;;;;;;4937089;29;20184;-92
2021/01/03 01:12:58;;;;;;;215.93;74.40;;;0.00;99.90;;;;;;4937609;29;20281;-93
2021/01/03 01:15:27;;;;;;;182.77;68.27;;;0.00;99.90;;;;;;4936727;29;20712;-93
2021/01/03 01:17:54;;;;;;;203.87;71.40;;;0.00;99.90;;;;;;4938383;29;20185;-93
2021/01/03 01:20:25;;;;;;;193.43;69.67;;;2.20;99.90;;;;;;4938432;29;20187;-92
2021/01/03 01:22:53;;;;;;;185.83;70.57;;;0.00;99.90;;;;;;4937119;29;20188;-93
2021/01/03 01:25:21;;;;;;;169.67;67.50;;;0.00;99.90;;;;;;4936754;29;20307;-92
2021/01/03 01:27:46;;;;;;;185.43;68.67;;;0.80;99.90;;;;;;4936602;29;20192;-92
2021/01/03 01:30:13;;;;;;;148.37;55.80;;;2.00;99.90;;;;;;4920723;29;20195;-92
2021/01/03 01:32:40;;;;;;;136.17;55.07;;;0.00;99.90;;;;;;4937694;29;20194;-92
2021/01/03 01:35:09;;;;;;;141.37;58.10;;;0.80;99.90;;;;;;4936846;29;20197;-93
2021/01/03 01:37:34;;;;;;;132.53;52.70;;;0.00;99.90;;;;;;4937590;29;20179;-92
2021/01/03 01:40:00;;;;;;;145.67;58.73;;;1.90;99.90;;;;;;4936437;29;20190;-93
2021/01/03 01:42:26;;;;;;;116.00;51.40;;;0.00;99.90;;;;;;4936441;29;20664;-93
2021/01/03 01:44:52;;;;;;;118.07;50.83;;;0.10;99.90;;;;;;4935896;29;20208;-93
2021/01/03 01:47:24;;;;;;;99.17;43.10;;;0.00;99.90;;;;;;4920858;29;20197;-93
2021/01/03 01:49:51;;;;;;;116.23;46.73;;;0.70;99.90;;;;;;4937729;29;20371;-93
2021/01/03 01:52:20;;;;;;;112.57;46.87;;;0.80;99.90;;;;;;4937595;29;20259;-93
2021/01/03 01:54:53;;;;;;;123.23;51.20;;;0.20;99.90;;;;;;4938608;29;20193;-90
2021/01/03 01:57:36;;;;;;;144.37;57.27;;;1.60;99.90;;;;;;4941546;29;20728;-90
2021/01/03 02:00:16;;;;;;;148.37;57.20;;;0.00;99.90;;;;;;4938802;29;20183;-91
2021/01/03 02:03:19;;;;;;;150.03;59.77;;;0.00;99.90;;;;;;4937432;29;20263;-93
2021/01/03 02:06:06;;;;;;;141.97;54.87;;;-0.10;99.90;;;;;;4935630;29;20317;-93
2021/01/03 02:09:01;;;;;;;148.40;56.77;;;1.50;99.90;;;;;;4936387;29;20189;-92
2021/01/03 02:11:30;;;;;;;140.87;55.70;;;-0.10;99.90;;;;;;4937417;29;20175;-92
2021/01/03 02:14:00;;;;;;;127.63;52.33;;;0.70;99.90;;;;;;4935660;29;20183;-92
2021/01/03 02:16:32;;;;;;;121.17;52.70;;;1.80;99.90;;;;;;4937077;29;20185;-92
2021/01/03 02:18:59;;;;;;;126.47;52.73;;;2.00;99.90;;;;;;4936953;29;20163;-92
2021/01/03 02:21:41;;;;;;;115.63;51.87;;;-0.20;99.90;;;;;;4936164;29;20190;-93
2021/01/03 02:24:50;;;;;;;122.13;50.47;;;-0.20;99.90;;;;;;4935715;29;20179;-93
2021/01/03 02:27:30;;;;;;;118.20;49.33;;;-0.20;99.90;;;;;;4935716;29;20194;-93
2021/01/03 02:29:58;;;;;;;122.00;50.07;;;2.00;99.90;;;;;;4936640;29;20193;-93
2021/01/03 02:32:25;;;;;;;131.37;54.77;;;0.00;99.90;;;;;;4936562;29;20211;-92
2021/01/03 02:34:52;;;;;;;153.57;63.27;;;1.20;99.90;;;;;;4935276;29;20670;-93
2021/01/03 02:37:18;;;;;;;150.77;65.33;;;1.20;99.90;;;;;;4935475;29;20191;-92
2021/01/03 02:40:01;;;;;;;153.30;60.23;;;1.70;99.90;;;;;;4936307;29;20203;-92
2021/01/03 02:42:38;;;;;;;97.83;45.47;;;-0.10;99.90;;;;;;4935598;29;20279;-92
2021/01/03 02:45:19;;;;;;;113.87;47.00;;;1.50;99.90;;;;;;4936402;29;20276;-91
2021/01/03 02:47:45;;;;;;;101.27;44.43;;;-0.10;99.90;;;;;;4935168;29;20645;-92
2021/01/03 02:50:15;;;;;;;114.13;49.70;;;1.40;99.90;;;;;;4935195;29;20668;-92
2021/01/03 02:52:42;;;;;;;101.53;46.77;;;1.50;99.90;;;;;;4934920;29;20282;-93
2021/01/03 02:55:10;;;;;;;117.80;51.73;;;-0.10;99.90;;;;;;4919443;29;20190;-92
2021/01/03 02:57:36;;;;;;;124.53;53.33;;;-0.10;99.90;;;;;;4935035;29;20187;-93
2021/01/03 03:00:13;;;;;;;117.33;52.27;;;-0.10;99.90;;;;;;4934721;29;20191;-91
2021/01/03 03:02:38;;;;;;;130.77;53.43;;;-0.20;99.90;;;;;;4936473;29;20646;-90
2021/01/03 03:05:06;;;;;;;122.90;50.77;;;0.50;99.90;;;;;;4918745;29;20224;-91
2021/01/03 03:07:31;;;;;;;129.53;53.50;;;-0.30;99.90;;;;;;4919190;29;20187;-91
2021/01/03 03:09:57;;;;;;;125.50;51.50;;;0.40;99.90;;;;;;4918573;29;20348;-91
2021/01/03 03:12:23;;;;;;;129.53;54.33;;;1.80;99.90;;;;;;4919328;29;20220;-91
2021/01/03 03:14:48;;;;;;;125.80;54.73;;;1.00;99.90;;;;;;4918686;29;20207;-91
2021/01/03 03:17:14;;;;;;;117.83;53.07;;;0.30;99.90;;;;;;4919075;29;20180;-91
2021/01/03 03:19:40;;;;;;;124.60;53.50;;;-0.40;99.90;;;;;;4936394;29;20241;-92
2021/01/03 03:22:06;;;;;;;125.50;51.70;;;-0.40;99.90;;;;;;4919099;29;20192;-92
2021/01/03 03:24:31;;;;;;;119.70;50.27;;;-0.40;99.90;;;;;;4937943;29;20618;-89
2021/01/03 03:26:59;;;;;;;111.47;49.43;;;1.70;99.90;;;;;;4908863;29;20204;-89
2021/01/03 03:29:26;;;;;;;108.83;49.43;;;2.00;99.90;;;;;;4943116;29;20630;-89
2021/01/03 03:31:52;;;;;;;108.40;50.90;;;0.40;99.90;;;;;;4937796;29;20634;-92
2021/01/03 03:34:19;;;;;;;103.50;49.10;;;-0.40;99.90;;;;;;4937407;29;20185;-91
2021/01/03 03:36:45;;;;;;;107.83;48.30;;;-0.40;99.90;;;;;;4919449;29;20219;-92
2021/01/03 03:39:11;;;;;;;97.83;44.73;;;1.50;99.90;;;;;;4907031;29;20210;-89
2021/01/03 03:41:37;;;;;;;99.47;46.33;;;1.30;99.90;;;;;;4939738;29;20292;-90
2021/01/03 03:44:06;;;;;;;99.70;46.30;;;1.90;99.90;;;;;;4939305;29;20208;-89
2021/01/03 03:46:33;;;;;;;98.37;44.67;;;-0.40;99.90;;;;;;4939811;29;20225;-89
2021/01/03 03:48:58;;;;;;;93.23;45.23;;;-0.40;99.90;;;;;;4906794;29;20189;-89
2021/01/03 03:51:24;;;;;;;97.57;43.70;;;0.30;99.90;;;;;;4939519;29;20192;-89
2021/01/03 03:53:50;;;;;;;86.73;41.97;;;1.70;99.90;;;;;;4906800;29;20638;-91
2021/01/03 03:56:17;;;;;;;80.03;38.17;;;2.00;99.90;;;;;;4922610;29;20197;-91
2021/01/03 03:58:44;;;;;;;80.33;38.03;;;-0.40;99.90;;;;;;4922952;29;20184;-93
2021/01/03 04:01:10;;;;;;;91.63;40.63;;;2.10;99.90;;;;;;4939845;29;20203;-93
2021/01/03 04:03:36;;;;;;;69.50;33.93;;;0.80;99.90;;;;;;4907224;29;20604;-94
2021/01/03 04:06:03;;;;;;;81.73;34.50;;;0.20;99.90;;;;;;4928693;29;20239;-93
2021/01/03 04:08:30;;;;;;;69.20;33.17;;;-0.40;99.90;;;;;;4939840;29;20250;-92
2021/01/03 04:10:56;;;;;;;67.47;32.57;;;1.70;99.90;;;;;;4922160;29;20193;-90
2021/01/03 04:13:21;;;;;;;68.27;32.07;;;-0.40;99.90;;;;;;4938474;29;20202;-92
2021/01/03 04:15:47;;;;;;;58.83;30.47;;;1.20;99.90;;;;;;4938458;29;20187;-93
2021/01/03 04:18:13;;;;;;;57.33;30.67;;;0.10;99.90;;;;;;4938020;29;20190;-93
2021/01/03 04:20:39;;;;;;;59.77;29.13;;;2.00;99.90;;;;;;4938027;29;20560;-93
2021/01/03 04:23:06;;;;;;;66.20;29.10;;;1.70;99.90;;;;;;4921864;29;20188;-93
2021/01/03 04:25:32;;;;;;;58.20;28.70;;;0.80;99.90;;;;;;4939130;29;20685;-91
2021/01/03 04:27:57;;;;;;;55.10;29.27;;;1.70;99.90;;;;;;4937999;29;20181;-91
2021/01/03 04:30:25;;;;;;;54.43;28.63;;;2.00;99.90;;;;;;4921910;29;20239;-91
2021/01/03 04:32:51;;;;;;;59.90;29.00;;;-0.30;99.90;;;;;;4921586;29;20181;-92
2021/01/03 04:35:19;;;;;;;59.70;28.60;;;-0.20;99.90;;;;;;4937890;29;20187;-91
2021/01/03 04:37:44;;;;;;;59.43;29.43;;;2.20;99.90;;;;;;4938641;29;20177;-90
2021/01/03 04:40:22;;;;;;;59.17;28.50;;;-0.20;99.90;;;;;;4921459;29;20188;-91
2021/01/03 04:42:54;;;;;;;57.37;28.37;;;-0.20;99.90;;;;;;4937712;29;20235;-91
2021/01/03 04:45:26;;;;;;;55.83;28.47;;;0.80;99.90;;;;;;4938990;29;20291;-93
2021/01/03 04:47:57;;;;;;;51.73;26.03;;;-0.30;99.90;;;;;;4937827;29;20239;-91
2021/01/03 04:50:52;;;;;;;53.17;26.67;;;1.10;99.90;;;;;;4937276;29;20638;-92
2021/01/03 04:53:57;;;;;;;54.97;26.57;;;-0.20;99.90;;;;;;4938045;29;20189;-91
2021/01/03 04:56:41;;;;;;;52.17;27.57;;;-0.30;99.90;;;;;;4938456;29;20175;-91
2021/01/03 04:59:21;;;;;;;55.60;28.37;;;-0.20;99.90;;;;;;4937199;29;20196;-92
2021/01/03 05:02:05;;;;;;;61.80;28.40;;;-0.30;99.90;;;;;;4937297;29;20186;-91
2021/01/03 05:04:51;;;;;;;59.67;29.60;;;-0.30;99.90;;;;;;4938165;29;20229;-91
2021/01/03 05:07:37;;;;;;;59.07;29.93;;;-0.20;99.90;;;;;;4936566;29;20328;-91
2021/01/03 05:10:09;;;;;;;57.13;29.10;;;1.50;99.90;;;;;;4936328;29;20197;-91
2021/01/03 05:13:14;;;;;;;50.77;28.57;;;-0.30;99.90;;;;;;4938459;29;20219;-92
2021/01/03 05:15:39;;;;;;;68.23;31.27;;;-0.30;99.90;;;;;;4935916;29;20194;-91
2021/01/03 05:18:06;;;;;;;66.00;33.03;;;0.70;99.90;;;;;;4920979;29;20670;-91
2021/01/03 05:20:31;;;;;;;61.77;32.03;;;1.40;99.90;;;;;;4938467;29;20696;-92
2021/01/03 05:23:31;;;;;;;69.67;34.67;;;1.80;99.90;;;;;;4920845;29;20189;-92
2021/01/03 05:25:56;;;;;;;75.07;32.87;;;-0.30;99.90;;;;;;4936758;29;20226;-90
2021/01/03 05:28:24;;;;;;;59.57;28.93;;;-0.30;99.90;;;;;;4921136;29;20683;-91
2021/01/03 05:30:50;;;;;;;68.77;30.50;;;-0.30;99.90;;;;;;4937118;29;20283;-93
2021/01/03 05:33:28;;;;;;;49.47;26.87;;;-0.30;99.90;;;;;;4936556;29;20669;-93
2021/01/03 05:35:55;;;;;;;51.97;24.33;;;2.00;99.90;;;;;;4937011;29;20234;-92
2021/01/03 05:38:39;;;;;;;45.47;23.20;;;1.60;99.90;;;;;;4936352;29;20247;-93
2021/01/03 05:41:13;;;;;;;43.37;21.70;;;-0.20;99.90;;;;;;4936558;29;20190;-92
2021/01/03 05:43:38;;;;;;;45.10;23.23;;;-0.20;99.90;;;;;;4937834;29;20212;-93
2021/01/03 05:46:29;;;;;;;43.63;23.33;;;1.80;99.90;;;;;;4920691;29;20309;-92
2021/01/03 05:49:02;;;;;;;48.90;22.97;;;2.20;99.90;;;;;;4937539;29;20184;-93
2021/01/03 05:51:34;;;;;;;39.70;21.80;;;-0.10;99.90;;;;;;4938237;29;20188;-92
2021/01/03 05:54:11;;;;;;;35.80;20.67;;;0.10;99.90;;;;;;4937792;29;20536;-93
2021/01/03 05:56:37;;;;;;;40.33;21.23;;;0.10;99.90;;;;;;4936747;29;20289;-93
2021/01/03 05:59:04;;;;;;;41.70;21.73;;;1.30;99.90;;;;;;4935999;29;20268;-92
2021/01/03 06:01:35;;;;;;;45.83;23.77;;;1.00;99.90;;;;;;4936978;29;20184;-94
2021/01/03 06:04:06;;;;;;;41.90;22.87;;;0.10;99.90;;;;;;4938031;29;20187;-94
2021/01/03 06:06:50;;;;;;;44.50;24.97;;;0.00;99.90;;;;;;4936556;29;20238;-93
2021/01/03 06:09:19;;;;;;;46.43;25.33;;;0.10;99.90;;;;;;4936858;29;20282;-93
2021/01/03 06:12:09;;;;;;;45.47;24.97;;;1.40;99.90;;;;;;4937685;29;20263;-93
2021/01/03 06:14:36;;;;;;;64.40;30.87;;;0.10;99.90;;;;;;4937764;29;20215;-94
2021/01/03 06:17:17;;;;;;;72.87;33.30;;;0.10;99.90;;;;;;4938145;29;20215;-92
2021/01/03 06:19:59;;;;;;;48.57;26.50;;;0.30;99.90;;;;;;4936423;29;20638;-93
2021/01/03 06:22:40;;;;;;;46.27;24.07;;;0.20;99.90;;;;;;4936296;29;20245;-92
2021/01/03 06:25:30;;;;;;;37.80;22.40;;;0.20;99.90;;;;;;4940359;29;20741;-92
2021/01/03 06:28:06;;;;;;;39.47;22.10;;;0.20;99.90;;;;;;4941001;29;20219;-91
2021/01/03 06:30:33;;;;;;;42.23;24.17;;;0.20;99.90;;;;;;4941342;29;20173;-94
2021/01/03 06:33:18;;;;;;;60.87;29.63;;;0.30;99.90;;;;;;4939909;29;20193;-92
2021/01/03 06:36:05;;;;;;;55.30;27.87;;;0.20;99.90;;;;;;4937317;29;20183;-93
2021/01/03 06:38:30;;;;;;;52.27;25.30;;;0.20;99.90;;;;;;4936803;29;20189;-88
2021/01/03 06:41:18;;;;;;;44.33;24.70;;;1.30;99.90;;;;;;4937423;29;20184;-92
2021/01/03 06:44:03;;;;;;;44.70;22.37;;;0.20;99.90;;;;;;4953249;29;20181;-87
2021/01/03 06:46:50;;;;;;;43.20;20.87;;;0.20;99.90;;;;;;4958726;29;20249;-93
2021/01/03 06:49:55;;;;;;;37.57;20.07;;;0.30;99.90;;;;;;4959998;29;20195;-91
2021/01/03 06:52:45;;;;;;;35.73;20.07;;;0.40;99.90;;;;;;4949612;29;20183;-90
2021/01/03 06:55:33;;;;;;;42.83;21.03;;;0.30;99.90;;;;;;4938855;29;20273;-92
2021/01/03 06:58:27;;;;;;;37.53;20.47;;;0.30;99.90;;;;;;4946169;29;20214;-92
2021/01/03 07:01:06;;;;;;;40.80;21.53;;;0.30;99.90;;;;;;4960349;29;20191;-90
2021/01/03 07:03:34;;;;;;;33.97;19.00;;;0.30;99.90;;;;;;4959649;29;20183;-94
2021/01/03 07:06:03;;;;;;;37.47;18.80;;;0.30;99.90;;;;;;4943514;29;20265;-91
2021/01/03 07:08:42;;;;;;;36.47;20.80;;;1.10;99.90;;;;;;4941636;29;20732;-92
2021/01/03 07:11:41;;;;;;;38.97;20.60;;;0.40;99.90;;;;;;4936068;29;20258;-91
2021/01/03 07:14:10;;;;;;;43.77;23.90;;;0.30;99.90;;;;;;4935755;29;20183;-95
2021/01/03 07:17:08;;;;;;;48.73;24.60;;;0.90;99.90;;;;;;4937229;29;20188;-94
2021/01/03 07:19:57;;;;;;;46.53;24.87;;;0.30;99.90;;;;;;4933930;29;20188;-90
2021/01/03 07:22:39;;;;;;;46.20;23.70;;;0.30;99.90;;;;;;4937605;29;20184;-93
2021/01/03 07:25:14;;;;;;;45.93;24.37;;;0.30;99.90;;;;;;4937810;29;20576;-94
2021/01/03 07:28:14;;;;;;;38.90;21.77;;;0.30;99.90;;;;;;4937574;29;20281;-89
2021/01/03 07:30:51;;;;;;;41.13;21.10;;;0.40;99.90;;;;;;4936359;29;20170;-91
2021/01/03 07:33:25;;;;;;;32.33;19.90;;;1.70;99.90;;;;;;4935315;29;20186;-92
2021/01/03 07:35:51;;;;;;;41.53;23.80;;;1.40;99.90;;;;;;4935190;29;20187;-93
2021/01/03 07:38:26;;;;;;;41.90;24.07;;;0.80;99.90;;;;;;4936066;29;20652;-94
2021/01/03 07:40:56;;;;;;;43.70;22.70;;;0.50;99.90;;;;;;4937400;29;20230;-91
2021/01/03 07:43:23;;;;;;;55.70;28.20;;;1.10;99.90;;;;;;4942877;29;20179;-92
2021/01/03 07:45:49;;;;;;;49.80;27.97;;;0.50;99.90;;;;;;4944042;29;20218;-90
2021/01/03 07:48:34;;;;;;;93.57;41.20;;;0.60;99.90;;;;;;4955745;29;20207;-92
2021/01/03 07:51:00;;;;;;;73.53;35.47;;;0.80;99.90;;;;;;4945623;29;20192;-93
2021/01/03 07:53:29;;;;;;;70.87;36.33;;;2.00;99.90;;;;;;4936434;29;20176;-90
2021/01/03 07:56:22;;;;;;;73.73;35.93;;;1.80;99.90;;;;;;4934597;29;20183;-90
2021/01/03 07:58:56;;;;;;;71.23;36.87;;;0.60;99.90;;;;;;4935710;29;20202;-92
2021/01/03 08:01:26;;;;;;;195.17;75.37;;;2.30;99.90;;;;;;4935887;29;20183;-92
2021/01/03 08:03:52;;;;;;;204.27;79.13;;;0.70;99.90;;;;;;4934434;29;20184;-93
2021/01/03 08:06:19;;;;;;;143.73;61.40;;;2.50;99.90;;;;;;4934477;29;20239;-94
2021/01/03 08:08:54;;;;;;;129.43;55.87;;;3.10;99.90;;;;;;4936670;29;20643;-93
2021/01/03 08:11:37;;;;;;;89.33;42.63;;;1.60;99.90;;;;;;4937718;29;20169;-95
2021/01/03 08:14:07;;;;;;;71.43;37.57;;;1.10;99.90;;;;;;4936927;29;20372;-95
2021/01/03 08:16:33;;;;;;;63.77;35.17;;;1.00;99.90;;;;;;4936429;29;20669;-93
2021/01/03 08:19:06;;;;;;;68.93;36.93;;;1.10;99.90;;;;;;4934914;29;20187;-90
2021/01/03 08:21:39;;;;;;;72.33;37.80;;;1.20;99.90;;;;;;4943487;29;20779;-94
2021/01/03 08:24:16;;;;;;;66.67;36.07;;;2.60;99.90;;;;;;4944497;29;20245;-93
2021/01/03 08:26:51;;;;;;;68.00;35.33;;;1.90;99.90;;;;;;4940515;29;20239;-93
2021/01/03 08:29:22;;;;;;;72.33;34.77;;;1.40;99.90;;;;;;4939271;29;20175;-94
2021/01/03 08:31:51;;;;;;;72.73;34.43;;;1.40;99.90;;;;;;4951595;29;20525;-92
2021/01/03 08:34:24;;;;;;;59.80;29.97;;;1.50;99.90;;;;;;4951776;28;20629;-92
2021/01/03 08:36:50;;;;;;;53.77;27.87;;;2.00;99.90;;;;;;4962205;28;20201;-96
2021/01/03 08:39:16;;;;;;;54.50;28.43;;;1.60;99.90;;;;;;4955582;29;20183;-94
2021/01/03 08:41:50;;;;;;;59.93;30.17;;;1.80;99.90;;;;;;4929731;29;20180;-95
2021/01/03 08:44:21;;;;;;;55.93;30.57;;;1.70;99.90;;;;;;4952590;29;20186;-93
2021/01/03 08:46:47;;;;;;;69.50;37.93;;;1.90;99.90;;;;;;4944225;29;20270;-93
2021/01/03 08:49:12;;;;;;;77.37;40.17;;;2.50;99.90;;;;;;4938541;29;20208;-96
2021/01/03 08:51:38;;;;;;;147.03;59.70;;;1.80;99.90;;;;;;4947183;29;20187;-93
2021/01/03 08:54:07;;;;;;;186.57;75.33;;;1.80;99.90;;;;;;4932982;29;20230;-95
2021/01/03 08:56:41;;;;;;;162.03;66.87;;;1.90;99.90;;;;;;4947775;28;20188;-92
2021/01/03 08:59:13;;;;;;;82.03;39.83;;;1.90;99.90;;;;;;4927072;29;20193;-93
2021/01/03 09:01:39;;;;;;;59.93;30.87;;;2.00;99.90;;;;;;4920085;29;20219;-94
2021/01/03 09:04:11;;;;;;;87.50;40.53;;;2.20;99.90;;;;;;4920113;29;20212;-94
2021/01/03 09:06:38;;;;;;;83.53;38.77;;;2.30;99.90;;;;;;4930912;29;20260;-94
2021/01/03 09:09:15;;;;;;;72.83;35.53;;;2.60;99.90;;;;;;4929651;29;20183;-93
2021/01/03 09:11:51;;;;;;;55.77;28.27;;;2.50;99.90;;;;;;4930513;29;20297;-95
2021/01/03 09:14:30;;;;;;;60.37;31.17;;;2.60;99.90;;;;;;4929140;29;20183;-94
2021/01/03 09:17:12;;;;;;;64.00;31.33;;;2.70;99.90;;;;;;4940659;29;20283;-94
2021/01/03 09:19:50;;;;;;;45.17;25.17;;;2.80;99.90;;;;;;5120223;23;20266;-96
2021/01/03 09:22:29;;;;;;;40.07;23.53;;;2.90;99.90;;;;;;4969823;29;20248;-95
2021/01/03 09:25:16;;;;;;;49.97;28.00;;;3.20;99.90;;;;;;4971140;29;20203;-96
2021/01/03 09:27:55;;;;;;;44.87;24.33;;;3.20;99.90;;;;;;4960126;29;20171;-94
2021/01/03 09:30:21;;;;;;;41.07;22.90;;;;;;;;;;4964951;29;20200;-91
2021/01/03 09:36:06;;;;;;;39.87;22.57;;;3.40;99.90;;;;;;5089675;23;20311;-96
2021/01/03 09:38:38;;;;;;;42.83;22.80;;;3.50;99.90;;;;;;4945060;29;20210;-95
2021/01/03 09:41:25;;;;;;;46.80;23.63;;;3.40;99.90;;;;;;4940733;29;20211;-95
2021/01/03 09:44:00;;;;;;;52.07;25.60;;;3.50;99.90;;;;;;4939674;29;20183;-89
2021/01/03 09:46:39;;;;;;;47.57;23.13;;;3.50;99.90;;;;;;4945573;29;20206;-96
2021/01/03 09:49:24;;;;;;;44.90;22.43;;;3.50;99.90;;;;;;4995420;23;20268;-93
2021/01/03 09:52:06;;;;;;;44.97;23.77;;;3.40;99.90;;;;;;4972213;28;20166;-96
2021/01/03 09:54:41;;;;;;;47.60;23.33;;;3.40;99.90;;;;;;5461437;23;20266;-91
2021/01/03 09:57:07;;;;;;;45.50;25.20;;;;;;;;;;4941445;29;20186;-94
2021/01/03 09:59:33;;;;;;;50.30;26.53;;;;;;;;;;4940557;29;20220;-94
2021/01/03 10:02:15;;;;;;;51.00;28.07;;;3.30;99.90;;;;;;4943977;29;20191;-94
2021/01/03 10:04:43;;;;;;;49.10;26.13;;;3.30;99.90;;;;;;4962715;29;20223;-94
2021/01/03 10:07:13;;;;;;;47.00;25.37;;;3.30;99.90;;;;;;4942071;29;20275;-94
2021/01/03 10:09:50;;;;;;;44.20;23.73;;;3.50;99.90;;;;;;4947184;29;20190;-93
2021/01/03 10:12:27;;;;;;;52.37;24.77;;;4.60;99.90;;;;;;4961967;29;20167;-94
2021/01/03 10:15:21;;;;;;;41.17;22.37;;;3.30;99.90;;;;;;4955532;29;20182;-95
2021/01/03 10:17:57;;;;;;;43.63;22.40;;;3.30;99.90;;;;;;4928415;29;20291;-96
2021/01/03 10:20:35;;;;;;;45.00;23.53;;;3.30;99.90;;;;;;4937160;29;20176;-95
2021/01/03 10:23:04;;;;;;;48.50;25.07;;;3.20;99.90;;;;;;4955214;28;20191;-96
2021/01/03 10:25:42;;;;;;;44.77;23.33;;;3.30;99.90;;;;;;4945712;29;20672;-96
2021/01/03 10:28:17;;;;;;;44.60;24.00;;;3.10;99.90;;;;;;4934445;29;20196;-95
2021/01/03 10:30:43;;;;;;;46.80;23.97;;;;;;;;;;4937477;29;20192;-91
2021/01/03 10:33:10;;;;;;;54.33;26.50;;;3.10;99.90;;;;;;4953131;28;20175;-94
2021/01/03 10:35:36;;;;;;;55.97;29.10;;;3.10;99.90;;;;;;4961145;29;20192;-92
2021/01/03 10:38:07;;;;;;;52.17;27.37;;;3.10;99.90;;;;;;4957297;28;20176;-92
2021/01/03 10:40:34;;;;;;;53.33;27.07;;;3.40;99.90;;;;;;4958970;29;20178;-94
2021/01/03 10:43:00;;;;;;;60.90;30.00;;;;;;;;;;4939939;29;20661;-93
2021/01/03 10:45:26;;;;;;;64.93;31.83;;;;;;;;;;4956172;28;20215;-93
2021/01/03 10:47:52;;;;;;;71.13;31.90;;;2.90;99.90;;;;;;4939507;29;20210;-91
2021/01/03 10:50:20;;;;;;;75.30;33.77;;;2.90;99.90;;;;;;4956274;28;20211;-92
2021/01/03 10:52:46;;;;;;;71.50;32.70;;;;;;;;;;4923020;29;20183;-92
2021/01/03 10:55:13;;;;;;;69.63;30.83;;;3.00;99.90;;;;;;4948829;28;20711;-91
2021/01/03 10:57:39;;;;;;;57.63;27.83;;;2.70;99.90;;;;;;4963241;28;20183;-90
2021/01/03 11:00:10;;;;;;;59.93;29.97;;;2.70;99.90;;;;;;4960279;29;20183;-93
2021/01/03 11:02:36;;;;;;;64.13;29.73;;;2.70;99.90;;;;;;4957952;28;20175;-93
2021/01/03 11:05:04;;;;;;;70.23;31.93;;;2.80;99.90;;;;;;4954893;28;20222;-91
2021/01/03 11:07:29;;;;;;;70.50;28.50;;;2.60;99.90;;;;;;4955569;29;20205;-95
2021/01/03 11:09:55;;;;;;;62.10;27.40;;;2.60;99.90;;;;;;4951009;29;20183;-94
2021/01/03 11:12:21;;;;;;;61.33;27.83;;;2.50;99.90;;;;;;4928392;29;20222;-94
2021/01/03 11:14:47;;;;;;;73.47;30.43;;;2.50;99.90;;;;;;4941611;29;20661;-91
2021/01/03 11:17:14;;;;;;;60.43;28.23;;;2.50;99.90;;;;;;4937312;29;20604;-90
2021/01/03 11:19:41;;;;;;;79.13;30.87;;;2.50;99.90;;;;;;4957358;29;20202;-92
2021/01/03 11:22:09;;;;;;;77.73;31.00;;;2.40;99.90;;;;;;4937546;29;20183;-91
2021/01/03 11:24:36;;;;;;;71.83;29.30;;;2.40;99.90;;;;;;4954953;28;20175;-92
2021/01/03 11:27:05;;;;;;;57.07;27.40;;;2.30;99.90;;;;;;4938222;29;20195;-92
2021/01/03 11:29:30;;;;;;;61.43;28.60;;;2.20;99.90;;;;;;4958693;28;20344;-92
2021/01/03 11:31:59;;;;;;;102.43;41.17;;;2.20;99.90;;;;;;4929555;29;20698;-92
2021/01/03 11:34:32;;;;;;;96.07;38.73;;;2.80;99.90;;;;;;4943784;28;20172;-92
2021/01/03 11:37:00;;;;;;;85.77;34.87;;;2.50;99.90;;;;;;4942325;29;20187;-91
2021/01/03 11:39:27;;;;;;;85.07;33.07;;;2.30;99.90;;;;;;4943490;28;20183;-93
2021/01/03 11:41:55;;;;;;;76.40;31.60;;;3.50;99.90;;;;;;4940205;29;20179;-92
2021/01/03 11:44:21;;;;;;;63.33;28.57;;;1.90;99.90;;;;;;4943261;28;20187;-91
2021/01/03 11:46:48;;;;;;;66.17;29.07;;;1.80;99.90;;;;;;4936362;29;20214;-91
2021/01/03 11:49:14;;;;;;;81.37;32.77;;;1.80;99.90;;;;;;4935778;29;20203;-92
2021/01/03 11:51:41;;;;;;;105.00;37.17;;;1.70;99.90;;;;;;4944254;29;20187;-94
2021/01/03 11:54:10;;;;;;;86.20;32.60;;;1.80;99.90;;;;;;4951519;29;20180;-93
2021/01/03 11:56:35;;;;;;;95.97;34.87;;;1.80;99.90;;;;;;4930995;29;20175;-95
2021/01/03 11:59:02;;;;;;;76.03;32.50;;;3.40;99.90;;;;;;4932357;29;20199;-94
2021/01/03 12:01:28;;;;;;;87.60;33.97;;;1.60;99.90;;;;;;4923417;29;20180;-89
2021/01/03 12:03:54;;;;;;;98.80;37.77;;;2.30;99.90;;;;;;4927849;29;20230;-90
2021/01/03 12:06:22;;;;;;;84.03;36.60;;;2.80;99.90;;;;;;4954611;29;20207;-92
2021/01/03 12:08:48;;;;;;;74.80;32.03;;;1.80;99.90;;;;;;4944584;29;20199;-92
2021/01/03 12:11:25;;;;;;;78.03;30.33;;;1.80;99.90;;;;;;4931877;29;20185;-90
2021/01/03 12:13:53;;;;;;;72.90;29.90;;;2.10;99.90;;;;;;4931167;29;20182;-91
2021/01/03 12:16:25;;;;;;;62.83;28.47;;;3.40;99.90;;;;;;4922701;29;20591;-91
2021/01/03 12:18:51;;;;;;;71.30;31.83;;;3.30;99.90;;;;;;4943735;29;20254;-91
2021/01/03 12:21:30;;;;;;;67.87;29.37;;;0.00;99.90;;;;;;4930900;29;20190;-90
2021/01/03 12:23:57;;;;;;;72.67;31.07;;;1.70;99.90;;;;;;4946001;29;20180;-92
2021/01/03 12:26:25;;;;;;;69.30;32.00;;;1.80;99.90;;;;;;4929179;29;20691;-91
2021/01/03 12:28:51;;;;;;;71.50;31.03;;;1.80;99.90;;;;;;4929259;29;20266;-90
2021/01/03 12:31:17;;;;;;;69.10;29.40;;;2.20;99.90;;;;;;4931302;29;20359;-92
2021/01/03 12:33:43;;;;;;;68.10;29.37;;;1.70;99.90;;;;;;4929053;29;20281;-91
2021/01/03 12:36:09;;;;;;;71.47;31.97;;;2.20;99.90;;;;;;4923984;29;20194;-94
2021/01/03 12:38:35;;;;;;;71.57;32.03;;;2.90;99.90;;;;;;4950601;29;20193;-90
2021/01/03 12:41:01;;;;;;;74.27;32.20;;;1.70;99.90;;;;;;4947637;29;20180;-92
2021/01/03 12:43:27;;;;;;;71.87;32.70;;;1.70;99.90;;;;;;4946768;29;20197;-91
2021/01/03 12:45:53;;;;;;;81.03;34.70;;;2.70;99.90;;;;;;4929065;29;20216;-90
2021/01/03 12:48:18;;;;;;;71.20;32.27;;;1.60;99.90;;;;;;4914069;29;20187;-91
2021/01/03 12:50:44;;;;;;;62.13;28.63;;;2.80;99.90;;;;;;4935096;29;20703;-94
2021/01/03 12:53:10;;;;;;;69.40;30.40;;;2.90;99.90;;;;;;4909816;29;20650;-92
2021/01/03 12:55:35;;;;;;;66.70;30.93;;;2.50;99.90;;;;;;4944627;29;20242;-96
2021/01/03 12:58:01;;;;;;;70.60;30.57;;;1.30;99.90;;;;;;4941952;29;20202;-91
2021/01/03 13:00:27;;;;;;;63.97;28.80;;;1.40;99.90;;;;;;4955649;29;20179;-89
2021/01/03 13:02:52;;;;;;;67.80;29.50;;;1.30;99.90;;;;;;4942277;29;20665;-89